sensor_id;sensor_type;location;lat;lon;timestamp;P1;durP1;ratioP1;P2;durP2;ratioP2
17510;SDS011;8873;48.818;9.422;2023-04-01T00:01:50;3.17;;;1.20;;
17510;SDS011;8873;48.818;9.422;2023-04-01T00:04:18;2.58;;;1.50;;
17510;SDS011;8873;48.818;9.422;2023-04-01T00:06:46;1.65;;;0.90;;
17510;SDS011;8873;48.818;9.422;2023-04-01T00:09:14;0.93;;;0.93;;
17510;SDS011;8873;48.818;9.422;2023-04-01T00:11:42;5.05;;;1.65;;
17510;SDS011;8873;48.818;9.422;2023-04-01T00:14:10;1.98;;;1.10;;
17510;SDS011;8873;48.818;9.422;2023-04-01T00:16:39;2.15;;;1.08;;
17510;SDS011;8873;48.818;9.422;2023-04-01T00:19:07;1.58;;;1.10;;
17510;SDS011;8873;48.818;9.422;2023-04-01T00:21:35;3.85;;;1.10;;
17510;SDS011;8873;48.818;9.422;2023-04-01T00:24:06;2.05;;;1.13;;
17510;SDS011;8873;48.818;9.422;2023-04-01T00:26:34;1.45;;;1.05;;
17510;SDS011;8873;48.818;9.422;2023-04-01T00:29:04;1.65;;;1.10;;
17510;SDS011;8873;48.818;9.422;2023-04-01T00:31:32;1.55;;;1.02;;
17510;SDS011;8873;48.818;9.422;2023-04-01T00:34:01;2.58;;;1.10;;
17510;SDS011;8873;48.818;9.422;2023-04-01T00:36:28;1.20;;;1.10;;
17510;SDS011;8873;48.818;9.422;2023-04-01T00:38:57;1.58;;;1.08;;
17510;SDS011;8873;48.818;9.422;2023-04-01T00:41:25;2.85;;;1.20;;
17510;SDS011;8873;48.818;9.422;2023-04-01T00:46:37;2.75;;;1.35;;
17510;SDS011;8873;48.818;9.422;2023-04-01T00:49:05;2.28;;;1.20;;
17510;SDS011;8873;48.818;9.422;2023-04-01T00:51:33;1.42;;;1.33;;
17510;SDS011;8873;48.818;9.422;2023-04-01T00:54:02;3.47;;;1.13;;
17510;SDS011;8873;48.818;9.422;2023-04-01T00:56:30;2.25;;;1.33;;
17510;SDS011;8873;48.818;9.422;2023-04-01T00:59:00;4.85;;;1.52;;
17510;SDS011;8873;48.818;9.422;2023-04-01T01:01:29;2.65;;;1.10;;
17510;SDS011;8873;48.818;9.422;2023-04-01T01:03:57;1.58;;;1.33;;
17510;SDS011;8873;48.818;9.422;2023-04-01T01:06:30;2.70;;;1.05;;
17510;SDS011;8873;48.818;9.422;2023-04-01T01:09:06;1.13;;;1.10;;
17510;SDS011;8873;48.818;9.422;2023-04-01T01:11:37;1.75;;;1.08;;
17510;SDS011;8873;48.818;9.422;2023-04-01T01:14:16;3.28;;;1.10;;
17510;SDS011;8873;48.818;9.422;2023-04-01T01:16:48;2.75;;;1.10;;
17510;SDS011;8873;48.818;9.422;2023-04-01T01:19:23;3.17;;;1.10;;
17510;SDS011;8873;48.818;9.422;2023-04-01T01:22:13;1.92;;;0.98;;
17510;SDS011;8873;48.818;9.422;2023-04-01T01:24:49;4.63;;;1.20;;
17510;SDS011;8873;48.818;9.422;2023-04-01T01:27:20;1.25;;;1.10;;
17510;SDS011;8873;48.818;9.422;2023-04-01T01:29:54;2.97;;;1.35;;
17510;SDS011;8873;48.818;9.422;2023-04-01T01:32:32;2.25;;;1.17;;
17510;SDS011;8873;48.818;9.422;2023-04-01T01:35:09;1.23;;;0.93;;
17510;SDS011;8873;48.818;9.422;2023-04-01T01:37:39;2.38;;;1.00;;
17510;SDS011;8873;48.818;9.422;2023-04-01T01:40:09;2.83;;;1.13;;
17510;SDS011;8873;48.818;9.422;2023-04-01T01:42:39;1.65;;;1.00;;
17510;SDS011;8873;48.818;9.422;2023-04-01T01:45:08;1.98;;;0.98;;
17510;SDS011;8873;48.818;9.422;2023-04-01T01:47:36;2.47;;;1.10;;
17510;SDS011;8873;48.818;9.422;2023-04-01T01:50:05;3.38;;;1.00;;
17510;SDS011;8873;48.818;9.422;2023-04-01T01:52:34;4.38;;;1.10;;
17510;SDS011;8873;48.818;9.422;2023-04-01T01:55:02;1.45;;;1.10;;
17510;SDS011;8873;48.818;9.422;2023-04-01T01:57:30;5.57;;;1.33;;
17510;SDS011;8873;48.818;9.422;2023-04-01T02:00:02;2.15;;;1.00;;
17510;SDS011;8873;48.818;9.422;2023-04-01T02:02:34;1.17;;;1.05;;
17510;SDS011;8873;48.818;9.422;2023-04-01T02:05:05;8.10;;;1.25;;
17510;SDS011;8873;48.818;9.422;2023-04-01T02:07:33;1.45;;;0.93;;
17510;SDS011;8873;48.818;9.422;2023-04-01T02:10:02;2.88;;;1.00;;
17510;SDS011;8873;48.818;9.422;2023-04-01T02:12:30;1.15;;;0.85;;
17510;SDS011;8873;48.818;9.422;2023-04-01T02:14:58;3.35;;;1.13;;
17510;SDS011;8873;48.818;9.422;2023-04-01T02:17:29;2.58;;;1.05;;
17510;SDS011;8873;48.818;9.422;2023-04-01T02:19:57;1.38;;;1.02;;
17510;SDS011;8873;48.818;9.422;2023-04-01T02:22:27;4.05;;;1.10;;
17510;SDS011;8873;48.818;9.422;2023-04-01T02:24:57;4.30;;;1.10;;
17510;SDS011;8873;48.818;9.422;2023-04-01T02:27:26;3.67;;;0.85;;
17510;SDS011;8873;48.818;9.422;2023-04-01T02:29:54;1.42;;;0.80;;
17510;SDS011;8873;48.818;9.422;2023-04-01T02:32:21;4.68;;;0.90;;
17510;SDS011;8873;48.818;9.422;2023-04-01T02:34:49;0.90;;;0.90;;
17510;SDS011;8873;48.818;9.422;2023-04-01T02:37:17;0.70;;;0.70;;
17510;SDS011;8873;48.818;9.422;2023-04-01T02:39:45;0.98;;;0.77;;
17510;SDS011;8873;48.818;9.422;2023-04-01T02:42:13;0.90;;;0.90;;
17510;SDS011;8873;48.818;9.422;2023-04-01T02:44:42;1.38;;;0.70;;
17510;SDS011;8873;48.818;9.422;2023-04-01T02:47:09;0.70;;;0.70;;
17510;SDS011;8873;48.818;9.422;2023-04-01T02:49:37;1.10;;;0.80;;
17510;SDS011;8873;48.818;9.422;2023-04-01T02:52:05;1.08;;;0.80;;
17510;SDS011;8873;48.818;9.422;2023-04-01T02:54:32;0.70;;;0.70;;
17510;SDS011;8873;48.818;9.422;2023-04-01T02:57:00;0.80;;;0.80;;
17510;SDS011;8873;48.818;9.422;2023-04-01T02:59:28;0.80;;;0.80;;
17510;SDS011;8873;48.818;9.422;2023-04-01T03:01:57;1.00;;;0.73;;
17510;SDS011;8873;48.818;9.422;2023-04-01T03:04:24;5.03;;;0.93;;
17510;SDS011;8873;48.818;9.422;2023-04-01T03:06:52;0.63;;;0.63;;
17510;SDS011;8873;48.818;9.422;2023-04-01T03:09:19;0.75;;;0.75;;
17510;SDS011;8873;48.818;9.422;2023-04-01T03:11:47;1.85;;;0.77;;
17510;SDS011;8873;48.818;9.422;2023-04-01T03:14:14;1.52;;;0.80;;
17510;SDS011;8873;48.818;9.422;2023-04-01T03:16:42;2.78;;;0.70;;
17510;SDS011;8873;48.818;9.422;2023-04-01T03:19:11;0.73;;;0.70;;
17510;SDS011;8873;48.818;9.422;2023-04-01T03:21:38;0.75;;;0.60;;
17510;SDS011;8873;48.818;9.422;2023-04-01T03:24:06;0.60;;;0.60;;
17510;SDS011;8873;48.818;9.422;2023-04-01T03:26:34;0.90;;;0.90;;
17510;SDS011;8873;48.818;9.422;2023-04-01T03:29:02;1.60;;;0.88;;
17510;SDS011;8873;48.818;9.422;2023-04-01T03:31:32;0.95;;;0.80;;
17510;SDS011;8873;48.818;9.422;2023-04-01T03:34:00;0.82;;;0.82;;
17510;SDS011;8873;48.818;9.422;2023-04-01T03:36:29;0.80;;;0.80;;
17510;SDS011;8873;48.818;9.422;2023-04-01T03:38:57;0.88;;;0.85;;
17510;SDS011;8873;48.818;9.422;2023-04-01T03:41:25;1.45;;;0.80;;
17510;SDS011;8873;48.818;9.422;2023-04-01T03:43:53;1.05;;;0.65;;
17510;SDS011;8873;48.818;9.422;2023-04-01T03:46:21;1.75;;;0.90;;
17510;SDS011;8873;48.818;9.422;2023-04-01T03:48:49;1.15;;;0.73;;
17510;SDS011;8873;48.818;9.422;2023-04-01T03:51:16;1.75;;;0.98;;
17510;SDS011;8873;48.818;9.422;2023-04-01T03:53:45;1.95;;;0.93;;
17510;SDS011;8873;48.818;9.422;2023-04-01T03:56:13;0.98;;;0.90;;
17510;SDS011;8873;48.818;9.422;2023-04-01T03:58:41;0.85;;;0.85;;
17510;SDS011;8873;48.818;9.422;2023-04-01T04:01:15;0.80;;;0.80;;
17510;SDS011;8873;48.818;9.422;2023-04-01T04:03:43;2.78;;;0.80;;
17510;SDS011;8873;48.818;9.422;2023-04-01T04:06:12;3.22;;;0.90;;
17510;SDS011;8873;48.818;9.422;2023-04-01T04:08:40;2.17;;;0.90;;
17510;SDS011;8873;48.818;9.422;2023-04-01T04:11:09;2.28;;;0.80;;
17510;SDS011;8873;48.818;9.422;2023-04-01T04:13:36;1.25;;;1.10;;
17510;SDS011;8873;48.818;9.422;2023-04-01T04:16:04;0.95;;;0.80;;
17510;SDS011;8873;48.818;9.422;2023-04-01T04:18:32;2.55;;;0.75;;
17510;SDS011;8873;48.818;9.422;2023-04-01T04:20:59;0.73;;;0.73;;
17510;SDS011;8873;48.818;9.422;2023-04-01T04:23:27;0.75;;;0.75;;
17510;SDS011;8873;48.818;9.422;2023-04-01T04:25:56;1.02;;;0.60;;
17510;SDS011;8873;48.818;9.422;2023-04-01T04:28:25;0.93;;;0.93;;
17510;SDS011;8873;48.818;9.422;2023-04-01T04:30:54;1.52;;;0.80;;
17510;SDS011;8873;48.818;9.422;2023-04-01T04:33:21;0.80;;;0.80;;
17510;SDS011;8873;48.818;9.422;2023-04-01T04:35:49;0.80;;;0.80;;
17510;SDS011;8873;48.818;9.422;2023-04-01T04:38:17;1.92;;;0.82;;
17510;SDS011;8873;48.818;9.422;2023-04-01T04:40:45;1.63;;;1.05;;
17510;SDS011;8873;48.818;9.422;2023-04-01T04:43:13;0.60;;;0.60;;
17510;SDS011;8873;48.818;9.422;2023-04-01T04:45:42;0.65;;;0.65;;
17510;SDS011;8873;48.818;9.422;2023-04-01T04:48:11;3.17;;;0.60;;
17510;SDS011;8873;48.818;9.422;2023-04-01T04:50:42;1.20;;;1.20;;
17510;SDS011;8873;48.818;9.422;2023-04-01T04:53:10;1.13;;;1.13;;
17510;SDS011;8873;48.818;9.422;2023-04-01T04:55:37;1.00;;;0.65;;
17510;SDS011;8873;48.818;9.422;2023-04-01T04:58:05;0.82;;;0.82;;
17510;SDS011;8873;48.818;9.422;2023-04-01T05:00:33;3.40;;;0.90;;
17510;SDS011;8873;48.818;9.422;2023-04-01T05:03:02;0.80;;;0.80;;
17510;SDS011;8873;48.818;9.422;2023-04-01T05:05:29;0.80;;;0.80;;
17510;SDS011;8873;48.818;9.422;2023-04-01T05:07:57;2.20;;;1.00;;
17510;SDS011;8873;48.818;9.422;2023-04-01T05:10:25;1.02;;;0.93;;
17510;SDS011;8873;48.818;9.422;2023-04-01T05:12:52;1.45;;;0.98;;
17510;SDS011;8873;48.818;9.422;2023-04-01T05:15:20;0.93;;;0.90;;
17510;SDS011;8873;48.818;9.422;2023-04-01T05:17:48;1.20;;;1.10;;
17510;SDS011;8873;48.818;9.422;2023-04-01T05:20:17;1.10;;;0.98;;
17510;SDS011;8873;48.818;9.422;2023-04-01T05:22:45;2.35;;;0.95;;
17510;SDS011;8873;48.818;9.422;2023-04-01T05:25:13;0.88;;;0.88;;
17510;SDS011;8873;48.818;9.422;2023-04-01T05:27:40;1.15;;;1.00;;
17510;SDS011;8873;48.818;9.422;2023-04-01T05:30:08;2.65;;;1.10;;
17510;SDS011;8873;48.818;9.422;2023-04-01T05:32:36;2.30;;;1.20;;
17510;SDS011;8873;48.818;9.422;2023-04-01T05:35:04;1.70;;;0.95;;
17510;SDS011;8873;48.818;9.422;2023-04-01T05:37:34;1.90;;;1.10;;
17510;SDS011;8873;48.818;9.422;2023-04-01T05:40:02;5.45;;;1.00;;
17510;SDS011;8873;48.818;9.422;2023-04-01T05:42:30;3.22;;;1.05;;
17510;SDS011;8873;48.818;9.422;2023-04-01T05:44:57;0.90;;;0.90;;
17510;SDS011;8873;48.818;9.422;2023-04-01T05:47:25;3.72;;;1.08;;
17510;SDS011;8873;48.818;9.422;2023-04-01T05:49:53;1.23;;;1.10;;
17510;SDS011;8873;48.818;9.422;2023-04-01T05:52:21;1.63;;;1.10;;
17510;SDS011;8873;48.818;9.422;2023-04-01T05:54:50;1.67;;;1.00;;
17510;SDS011;8873;48.818;9.422;2023-04-01T05:57:18;1.52;;;0.85;;
17510;SDS011;8873;48.818;9.422;2023-04-01T05:59:45;1.27;;;1.17;;
17510;SDS011;8873;48.818;9.422;2023-04-01T06:02:13;2.65;;;1.05;;
17510;SDS011;8873;48.818;9.422;2023-04-01T06:04:44;2.53;;;1.25;;
17510;SDS011;8873;48.818;9.422;2023-04-01T06:07:12;3.42;;;1.10;;
17510;SDS011;8873;48.818;9.422;2023-04-01T06:09:39;1.00;;;1.00;;
17510;SDS011;8873;48.818;9.422;2023-04-01T06:15:06;3.53;;;1.02;;
17510;SDS011;8873;48.818;9.422;2023-04-01T06:17:43;1.42;;;1.00;;
17510;SDS011;8873;48.818;9.422;2023-04-01T06:20:13;3.55;;;1.70;;
17510;SDS011;8873;48.818;9.422;2023-04-01T06:22:46;2.13;;;2.03;;
17510;SDS011;8873;48.818;9.422;2023-04-01T06:25:29;2.92;;;1.63;;
17510;SDS011;8873;48.818;9.422;2023-04-01T06:28:02;1.30;;;1.20;;
17510;SDS011;8873;48.818;9.422;2023-04-01T06:30:37;2.25;;;0.80;;
17510;SDS011;8873;48.818;9.422;2023-04-01T06:33:20;1.65;;;1.10;;
17510;SDS011;8873;48.818;9.422;2023-04-01T06:35:56;1.05;;;1.00;;
17510;SDS011;8873;48.818;9.422;2023-04-01T06:41:34;1.33;;;1.33;;
17510;SDS011;8873;48.818;9.422;2023-04-01T06:44:08;2.08;;;1.02;;
17510;SDS011;8873;48.818;9.422;2023-04-01T06:46:44;2.15;;;1.55;;
17510;SDS011;8873;48.818;9.422;2023-04-01T06:49:22;3.22;;;2.28;;
17510;SDS011;8873;48.818;9.422;2023-04-01T06:51:54;3.20;;;1.23;;
17510;SDS011;8873;48.818;9.422;2023-04-01T06:54:25;1.33;;;1.33;;
17510;SDS011;8873;48.818;9.422;2023-04-01T06:56:58;2.20;;;1.80;;
17510;SDS011;8873;48.818;9.422;2023-04-01T06:59:28;2.65;;;1.80;;
17510;SDS011;8873;48.818;9.422;2023-04-01T07:02:00;1.13;;;0.90;;
17510;SDS011;8873;48.818;9.422;2023-04-01T07:04:29;2.83;;;1.05;;
17510;SDS011;8873;48.818;9.422;2023-04-01T07:06:58;3.53;;;0.90;;
17510;SDS011;8873;48.818;9.422;2023-04-01T07:09:27;0.95;;;0.95;;
17510;SDS011;8873;48.818;9.422;2023-04-01T07:12:00;1.27;;;1.02;;
17510;SDS011;8873;48.818;9.422;2023-04-01T07:14:29;2.13;;;1.00;;
17510;SDS011;8873;48.818;9.422;2023-04-01T07:16:59;1.38;;;1.00;;
17510;SDS011;8873;48.818;9.422;2023-04-01T07:19:31;0.75;;;0.75;;
17510;SDS011;8873;48.818;9.422;2023-04-01T07:22:01;0.95;;;0.90;;
17510;SDS011;8873;48.818;9.422;2023-04-01T07:24:32;1.40;;;1.20;;
17510;SDS011;8873;48.818;9.422;2023-04-01T07:27:00;3.50;;;1.15;;
17510;SDS011;8873;48.818;9.422;2023-04-01T07:29:27;4.32;;;1.30;;
17510;SDS011;8873;48.818;9.422;2023-04-01T07:32:04;3.83;;;1.60;;
17510;SDS011;8873;48.818;9.422;2023-04-01T07:34:34;1.23;;;1.10;;
17510;SDS011;8873;48.818;9.422;2023-04-01T07:37:04;1.52;;;0.98;;
17510;SDS011;8873;48.818;9.422;2023-04-01T07:39:37;1.23;;;0.93;;
17510;SDS011;8873;48.818;9.422;2023-04-01T07:42:13;1.98;;;0.85;;
17510;SDS011;8873;48.818;9.422;2023-04-01T07:44:44;0.85;;;0.85;;
17510;SDS011;8873;48.818;9.422;2023-04-01T07:47:22;2.10;;;1.05;;
17510;SDS011;8873;48.818;9.422;2023-04-01T07:49:56;3.75;;;1.30;;
17510;SDS011;8873;48.818;9.422;2023-04-01T07:52:29;1.67;;;1.10;;
17510;SDS011;8873;48.818;9.422;2023-04-01T07:55:00;1.23;;;1.10;;
17510;SDS011;8873;48.818;9.422;2023-04-01T07:57:33;2.85;;;0.90;;
17510;SDS011;8873;48.818;9.422;2023-04-01T08:00:04;0.95;;;0.95;;
17510;SDS011;8873;48.818;9.422;2023-04-01T08:02:41;1.90;;;1.70;;
17510;SDS011;8873;48.818;9.422;2023-04-01T08:05:14;1.75;;;1.17;;
17510;SDS011;8873;48.818;9.422;2023-04-01T08:07:45;2.20;;;1.50;;
17510;SDS011;8873;48.818;9.422;2023-04-01T08:10:17;1.52;;;1.15;;
17510;SDS011;8873;48.818;9.422;2023-04-01T08:12:48;1.40;;;1.30;;
17510;SDS011;8873;48.818;9.422;2023-04-01T08:15:21;1.40;;;1.30;;
17510;SDS011;8873;48.818;9.422;2023-04-01T08:17:54;1.20;;;1.10;;
17510;SDS011;8873;48.818;9.422;2023-04-01T08:20:26;1.55;;;0.95;;
17510;SDS011;8873;48.818;9.422;2023-04-01T08:22:57;2.20;;;0.95;;
17510;SDS011;8873;48.818;9.422;2023-04-01T08:25:28;0.77;;;0.77;;
17510;SDS011;8873;48.818;9.422;2023-04-01T08:27:59;1.15;;;1.00;;
17510;SDS011;8873;48.818;9.422;2023-04-01T08:30:29;0.82;;;0.82;;
17510;SDS011;8873;48.818;9.422;2023-04-01T08:33:03;0.90;;;0.90;;
17510;SDS011;8873;48.818;9.422;2023-04-01T08:35:34;1.00;;;1.00;;
17510;SDS011;8873;48.818;9.422;2023-04-01T08:38:05;3.72;;;1.17;;
17510;SDS011;8873;48.818;9.422;2023-04-01T08:40:50;1.00;;;1.00;;
17510;SDS011;8873;48.818;9.422;2023-04-01T08:43:21;1.85;;;1.20;;
17510;SDS011;8873;48.818;9.422;2023-04-01T08:46:03;2.55;;;1.02;;
17510;SDS011;8873;48.818;9.422;2023-04-01T08:48:42;1.08;;;1.00;;
17510;SDS011;8873;48.818;9.422;2023-04-01T08:51:34;2.10;;;1.20;;
17510;SDS011;8873;48.818;9.422;2023-04-01T08:54:11;1.58;;;1.08;;
17510;SDS011;8873;48.818;9.422;2023-04-01T08:56:47;1.15;;;1.00;;
17510;SDS011;8873;48.818;9.422;2023-04-01T08:59:28;1.40;;;0.82;;
17510;SDS011;8873;48.818;9.422;2023-04-01T09:02:02;5.03;;;1.42;;
17510;SDS011;8873;48.818;9.422;2023-04-01T09:04:41;3.35;;;1.20;;
17510;SDS011;8873;48.818;9.422;2023-04-01T09:07:19;2.88;;;1.10;;
17510;SDS011;8873;48.818;9.422;2023-04-01T09:10:04;1.20;;;1.10;;
17510;SDS011;8873;48.818;9.422;2023-04-01T09:12:48;2.17;;;0.95;;
17510;SDS011;8873;48.818;9.422;2023-04-01T09:20:47;0.77;;;0.77;;
17510;SDS011;8873;48.818;9.422;2023-04-01T09:23:25;3.22;;;1.88;;
17510;SDS011;8873;48.818;9.422;2023-04-01T09:26:02;1.17;;;0.85;;
17510;SDS011;8873;48.818;9.422;2023-04-01T09:28:37;1.63;;;1.00;;
17510;SDS011;8873;48.818;9.422;2023-04-01T09:34:07;1.20;;;1.00;;
17510;SDS011;8873;48.818;9.422;2023-04-01T09:36:45;0.95;;;0.95;;
17510;SDS011;8873;48.818;9.422;2023-04-01T09:41:58;1.27;;;1.20;;
17510;SDS011;8873;48.818;9.422;2023-04-01T09:44:31;1.20;;;1.20;;
17510;SDS011;8873;48.818;9.422;2023-04-01T09:47:04;1.00;;;1.00;;
17510;SDS011;8873;48.818;9.422;2023-04-01T09:49:37;1.48;;;1.48;;
17510;SDS011;8873;48.818;9.422;2023-04-01T09:57:37;1.63;;;1.52;;
17510;SDS011;8873;48.818;9.422;2023-04-01T10:00:20;2.35;;;1.50;;
17510;SDS011;8873;48.818;9.422;2023-04-01T10:03:12;3.20;;;1.30;;
17510;SDS011;8873;48.818;9.422;2023-04-01T10:05:57;1.00;;;1.00;;
17510;SDS011;8873;48.818;9.422;2023-04-01T10:22:24;1.10;;;1.10;;
17510;SDS011;8873;48.818;9.422;2023-04-01T10:25:05;0.82;;;0.82;;
17510;SDS011;8873;48.818;9.422;2023-04-01T10:30:40;0.95;;;0.90;;
17510;SDS011;8873;48.818;9.422;2023-04-01T10:33:19;0.80;;;0.80;;
17510;SDS011;8873;48.818;9.422;2023-04-01T10:39:04;0.77;;;0.77;;
17510;SDS011;8873;48.818;9.422;2023-04-01T10:41:50;0.80;;;0.80;;
17510;SDS011;8873;48.818;9.422;2023-04-01T10:50:03;0.90;;;0.90;;
17510;SDS011;8873;48.818;9.422;2023-04-01T10:52:40;1.08;;;1.00;;
17510;SDS011;8873;48.818;9.422;2023-04-01T10:55:34;0.80;;;0.80;;
17510;SDS011;8873;48.818;9.422;2023-04-01T11:06:27;1.60;;;0.60;;
17510;SDS011;8873;48.818;9.422;2023-04-01T11:09:19;0.70;;;0.70;;
17510;SDS011;8873;48.818;9.422;2023-04-01T11:12:10;0.70;;;0.70;;
17510;SDS011;8873;48.818;9.422;2023-04-01T11:20:28;1.00;;;1.00;;
17510;SDS011;8873;48.818;9.422;2023-04-01T11:23:03;0.82;;;0.82;;
17510;SDS011;8873;48.818;9.422;2023-04-01T11:25:51;1.38;;;1.38;;
17510;SDS011;8873;48.818;9.422;2023-04-01T11:28:28;1.52;;;1.52;;
17510;SDS011;8873;48.818;9.422;2023-04-01T11:31:08;0.88;;;0.88;;
17510;SDS011;8873;48.818;9.422;2023-04-01T11:33:39;1.25;;;1.15;;
17510;SDS011;8873;48.818;9.422;2023-04-01T11:36:12;1.00;;;1.00;;
17510;SDS011;8873;48.818;9.422;2023-04-01T11:38:52;1.10;;;1.10;;
17510;SDS011;8873;48.818;9.422;2023-04-01T11:41:24;1.00;;;1.00;;
17510;SDS011;8873;48.818;9.422;2023-04-01T11:43:59;1.45;;;1.20;;
17510;SDS011;8873;48.818;9.422;2023-04-01T11:46:31;1.08;;;1.08;;
17510;SDS011;8873;48.818;9.422;2023-04-01T11:49:03;1.65;;;1.45;;
17510;SDS011;8873;48.818;9.422;2023-04-01T11:51:38;1.15;;;1.15;;
17510;SDS011;8873;48.818;9.422;2023-04-01T11:54:13;1.00;;;1.00;;
17510;SDS011;8873;48.818;9.422;2023-04-01T11:56:50;0.90;;;0.90;;
17510;SDS011;8873;48.818;9.422;2023-04-01T12:02:18;1.00;;;1.00;;
17510;SDS011;8873;48.818;9.422;2023-04-01T12:04:51;1.10;;;1.10;;
17510;SDS011;8873;48.818;9.422;2023-04-01T12:07:26;1.35;;;1.35;;
17510;SDS011;8873;48.818;9.422;2023-04-01T12:09:57;1.17;;;1.17;;
17510;SDS011;8873;48.818;9.422;2023-04-01T12:12:32;1.23;;;1.20;;
17510;SDS011;8873;48.818;9.422;2023-04-01T12:15:21;1.20;;;1.02;;
17510;SDS011;8873;48.818;9.422;2023-04-01T12:17:53;0.90;;;0.90;;
17510;SDS011;8873;48.818;9.422;2023-04-01T12:20:33;0.60;;;0.60;;
17510;SDS011;8873;48.818;9.422;2023-04-01T12:23:08;1.00;;;1.00;;
17510;SDS011;8873;48.818;9.422;2023-04-01T12:25:48;2.50;;;1.25;;
17510;SDS011;8873;48.818;9.422;2023-04-01T12:28:21;0.80;;;0.80;;
17510;SDS011;8873;48.818;9.422;2023-04-01T12:30:54;2.72;;;2.05;;
17510;SDS011;8873;48.818;9.422;2023-04-01T12:33:46;1.65;;;1.55;;
17510;SDS011;8873;48.818;9.422;2023-04-01T12:36:19;0.88;;;0.88;;
17510;SDS011;8873;48.818;9.422;2023-04-01T12:38:55;0.80;;;0.80;;
17510;SDS011;8873;48.818;9.422;2023-04-01T12:41:30;3.38;;;1.10;;
17510;SDS011;8873;48.818;9.422;2023-04-01T12:44:09;0.80;;;0.80;;
17510;SDS011;8873;48.818;9.422;2023-04-01T12:46:45;1.40;;;1.23;;
17510;SDS011;8873;48.818;9.422;2023-04-01T12:49:22;0.80;;;0.80;;
17510;SDS011;8873;48.818;9.422;2023-04-01T12:52:05;0.80;;;0.80;;
17510;SDS011;8873;48.818;9.422;2023-04-01T12:54:41;1.00;;;1.00;;
17510;SDS011;8873;48.818;9.422;2023-04-01T12:57:19;1.00;;;1.00;;
17510;SDS011;8873;48.818;9.422;2023-04-01T12:59:54;0.80;;;0.80;;
17510;SDS011;8873;48.818;9.422;2023-04-01T13:02:26;0.82;;;0.82;;
17510;SDS011;8873;48.818;9.422;2023-04-01T13:05:18;0.90;;;0.90;;
17510;SDS011;8873;48.818;9.422;2023-04-01T13:07:57;0.90;;;0.90;;
17510;SDS011;8873;48.818;9.422;2023-04-01T13:10:27;0.98;;;0.98;;
17510;SDS011;8873;48.818;9.422;2023-04-01T13:13:17;0.90;;;0.90;;
17510;SDS011;8873;48.818;9.422;2023-04-01T13:15:49;0.90;;;0.90;;
17510;SDS011;8873;48.818;9.422;2023-04-01T13:18:25;1.10;;;1.10;;
17510;SDS011;8873;48.818;9.422;2023-04-01T13:21:11;1.23;;;1.23;;
17510;SDS011;8873;48.818;9.422;2023-04-01T13:23:54;1.02;;;0.98;;
17510;SDS011;8873;48.818;9.422;2023-04-01T13:26:28;1.10;;;1.10;;
17510;SDS011;8873;48.818;9.422;2023-04-01T13:29:02;1.15;;;1.15;;
17510;SDS011;8873;48.818;9.422;2023-04-01T13:31:36;1.10;;;1.00;;
17510;SDS011;8873;48.818;9.422;2023-04-01T13:34:19;0.80;;;0.80;;
17510;SDS011;8873;48.818;9.422;2023-04-01T13:36:53;0.70;;;0.70;;
17510;SDS011;8873;48.818;9.422;2023-04-01T13:39:27;1.08;;;1.08;;
17510;SDS011;8873;48.818;9.422;2023-04-01T13:44:45;0.90;;;0.90;;
17510;SDS011;8873;48.818;9.422;2023-04-01T13:47:20;0.90;;;0.90;;
17510;SDS011;8873;48.818;9.422;2023-04-01T13:55:36;0.73;;;0.70;;
17510;SDS011;8873;48.818;9.422;2023-04-01T13:58:13;0.93;;;0.93;;
17510;SDS011;8873;48.818;9.422;2023-04-01T14:00:52;0.80;;;0.80;;
17510;SDS011;8873;48.818;9.422;2023-04-01T14:03:30;0.70;;;0.70;;
17510;SDS011;8873;48.818;9.422;2023-04-01T14:09:00;0.90;;;0.90;;
17510;SDS011;8873;48.818;9.422;2023-04-01T14:11:34;1.05;;;1.00;;
17510;SDS011;8873;48.818;9.422;2023-04-01T14:14:05;0.90;;;0.90;;
17510;SDS011;8873;48.818;9.422;2023-04-01T14:16:41;0.90;;;0.90;;
17510;SDS011;8873;48.818;9.422;2023-04-01T14:19:14;1.92;;;0.90;;
17510;SDS011;8873;48.818;9.422;2023-04-01T14:21:51;0.70;;;0.70;;
17510;SDS011;8873;48.818;9.422;2023-04-01T14:24:24;1.13;;;1.13;;
17510;SDS011;8873;48.818;9.422;2023-04-01T14:27:10;0.80;;;0.80;;
17510;SDS011;8873;48.818;9.422;2023-04-01T14:29:41;0.90;;;0.90;;
17510;SDS011;8873;48.818;9.422;2023-04-01T14:32:12;0.70;;;0.70;;
17510;SDS011;8873;48.818;9.422;2023-04-01T14:34:54;0.90;;;0.90;;
17510;SDS011;8873;48.818;9.422;2023-04-01T14:37:35;0.90;;;0.90;;
17510;SDS011;8873;48.818;9.422;2023-04-01T14:48:38;0.88;;;0.88;;
17510;SDS011;8873;48.818;9.422;2023-04-01T14:51:16;0.80;;;0.80;;
17510;SDS011;8873;48.818;9.422;2023-04-01T14:53:53;1.27;;;1.27;;
17510;SDS011;8873;48.818;9.422;2023-04-01T14:56:38;0.90;;;0.90;;
17510;SDS011;8873;48.818;9.422;2023-04-01T14:59:10;1.00;;;1.00;;
17510;SDS011;8873;48.818;9.422;2023-04-01T15:01:43;1.63;;;1.52;;
17510;SDS011;8873;48.818;9.422;2023-04-01T15:04:29;1.70;;;1.60;;
17510;SDS011;8873;48.818;9.422;2023-04-01T15:07:06;1.80;;;1.70;;
17510;SDS011;8873;48.818;9.422;2023-04-01T15:09:39;1.77;;;1.67;;
17510;SDS011;8873;48.818;9.422;2023-04-01T15:12:13;1.80;;;1.70;;
17510;SDS011;8873;48.818;9.422;2023-04-01T15:14:46;1.48;;;1.38;;
17510;SDS011;8873;48.818;9.422;2023-04-01T15:17:21;2.25;;;1.50;;
17510;SDS011;8873;48.818;9.422;2023-04-01T15:19:57;1.00;;;1.00;;
17510;SDS011;8873;48.818;9.422;2023-04-01T15:22:36;1.08;;;1.08;;
17510;SDS011;8873;48.818;9.422;2023-04-01T15:25:16;2.25;;;2.15;;
17510;SDS011;8873;48.818;9.422;2023-04-01T15:27:47;1.38;;;1.38;;
17510;SDS011;8873;48.818;9.422;2023-04-01T15:30:18;1.13;;;1.13;;
17510;SDS011;8873;48.818;9.422;2023-04-01T15:32:52;2.38;;;2.15;;
17510;SDS011;8873;48.818;9.422;2023-04-01T15:35:30;3.78;;;2.70;;
17510;SDS011;8873;48.818;9.422;2023-04-01T15:38:31;10.25;;;3.58;;
17510;SDS011;8873;48.818;9.422;2023-04-01T15:41:06;10.05;;;6.15;;
17510;SDS011;8873;48.818;9.422;2023-04-01T15:43:38;2.00;;;1.80;;
17510;SDS011;8873;48.818;9.422;2023-04-01T15:48:58;5.55;;;3.00;;
17510;SDS011;8873;48.818;9.422;2023-04-01T15:51:35;4.43;;;2.17;;
17510;SDS011;8873;48.818;9.422;2023-04-01T15:54:19;1.73;;;1.63;;
17510;SDS011;8873;48.818;9.422;2023-04-01T15:56:52;3.42;;;2.15;;
17510;SDS011;8873;48.818;9.422;2023-04-01T15:59:25;2.00;;;1.90;;
17510;SDS011;8873;48.818;9.422;2023-04-01T16:01:59;3.53;;;2.45;;
17510;SDS011;8873;48.818;9.422;2023-04-01T16:04:38;5.97;;;2.65;;
17510;SDS011;8873;48.818;9.422;2023-04-01T16:07:23;2.85;;;1.92;;
17510;SDS011;8873;48.818;9.422;2023-04-01T16:10:02;1.48;;;1.20;;
17510;SDS011;8873;48.818;9.422;2023-04-01T16:12:47;2.08;;;1.80;;
17510;SDS011;8873;48.818;9.422;2023-04-01T16:15:21;2.05;;;1.38;;
17510;SDS011;8873;48.818;9.422;2023-04-01T16:17:54;1.02;;;1.02;;
17510;SDS011;8873;48.818;9.422;2023-04-01T16:20:39;4.65;;;1.92;;
17510;SDS011;8873;48.818;9.422;2023-04-01T16:23:15;1.17;;;1.17;;
17510;SDS011;8873;48.818;9.422;2023-04-01T16:25:49;1.77;;;1.67;;
17510;SDS011;8873;48.818;9.422;2023-04-01T16:28:23;2.17;;;1.98;;
17510;SDS011;8873;48.818;9.422;2023-04-01T16:30:55;3.03;;;2.58;;
17510;SDS011;8873;48.818;9.422;2023-04-01T16:33:27;2.83;;;2.53;;
17510;SDS011;8873;48.818;9.422;2023-04-01T16:35:59;7.20;;;3.42;;
17510;SDS011;8873;48.818;9.422;2023-04-01T16:38:34;1.40;;;1.30;;
17510;SDS011;8873;48.818;9.422;2023-04-01T16:41:10;1.45;;;1.35;;
17510;SDS011;8873;48.818;9.422;2023-04-01T16:43:40;1.70;;;1.60;;
17510;SDS011;8873;48.818;9.422;2023-04-01T16:46:15;1.25;;;1.23;;
17510;SDS011;8873;48.818;9.422;2023-04-01T16:48:50;1.48;;;1.20;;
17510;SDS011;8873;48.818;9.422;2023-04-01T16:51:19;1.80;;;1.40;;
17510;SDS011;8873;48.818;9.422;2023-04-01T16:53:49;1.20;;;1.20;;
17510;SDS011;8873;48.818;9.422;2023-04-01T16:56:20;0.80;;;0.80;;
17510;SDS011;8873;48.818;9.422;2023-04-01T16:58:59;1.60;;;1.30;;
17510;SDS011;8873;48.818;9.422;2023-04-01T17:01:30;1.23;;;1.13;;
17510;SDS011;8873;48.818;9.422;2023-04-01T17:04:00;2.38;;;1.85;;
17510;SDS011;8873;48.818;9.422;2023-04-01T17:06:33;2.55;;;2.15;;